sensor_id;sensor_type;location;lat;lon;timestamp;pressure;altitude;pressure_sealevel;temperature;humidity
39793;BME280;26080;42.264;24.536;2023-05-03T00:00:14;99849.25;;;11.92;70.54
39793;BME280;26080;42.264;24.536;2023-05-03T00:02:41;99855.56;;;11.88;70.12
39793;BME280;26080;42.264;24.536;2023-05-03T00:05:09;99858.63;;;11.77;70.63
39793;BME280;26080;42.264;24.536;2023-05-03T00:07:41;99860.38;;;11.76;70.89
39793;BME280;26080;42.264;24.536;2023-05-03T00:10:08;99872.00;;;11.71;71.93
39793;BME280;26080;42.264;24.536;2023-05-03T00:12:37;99863.59;;;11.63;73.66
39793;BME280;26080;42.264;24.536;2023-05-03T00:15:03;99861.03;;;11.61;74.92
39793;BME280;26080;42.264;24.536;2023-05-03T00:17:28;99825.97;;;11.43;75.35
39793;BME280;26080;42.264;24.536;2023-05-03T00:19:54;99860.91;;;11.64;75.20
39793;BME280;26080;42.264;24.536;2023-05-03T00:22:20;99857.44;;;11.64;75.04
39793;BME280;26080;42.264;24.536;2023-05-03T00:24:46;99854.56;;;11.70;74.79
39793;BME280;26080;42.264;24.536;2023-05-03T00:27:13;99851.03;;;11.71;74.91
39793;BME280;26080;42.264;24.536;2023-05-03T00:29:40;99846.75;;;11.68;75.54
39793;BME280;26080;42.264;24.536;2023-05-03T00:32:05;99848.72;;;11.63;75.98
39793;BME280;26080;42.264;24.536;2023-05-03T00:34:31;99850.69;;;11.58;76.36
39793;BME280;26080;42.264;24.536;2023-05-03T00:36:57;99862.16;;;11.55;78.36
39793;BME280;26080;42.264;24.536;2023-05-03T00:39:22;99854.22;;;11.57;78.62
39793;BME280;26080;42.264;24.536;2023-05-03T00:41:48;99857.63;;;11.59;79.19
39793;BME280;26080;42.264;24.536;2023-05-03T00:44:13;99852.25;;;11.62;79.06
39793;BME280;26080;42.264;24.536;2023-05-03T00:46:39;99828.44;;;11.46;79.83
39793;BME280;26080;42.264;24.536;2023-05-03T00:49:05;99860.47;;;11.54;82.92
39793;BME280;26080;42.264;24.536;2023-05-03T00:51:30;99862.53;;;11.46;87.65
39793;BME280;26080;42.264;24.536;2023-05-03T00:53:57;99868.97;;;11.39;91.42
39793;BME280;26080;42.264;24.536;2023-05-03T00:56:23;99865.53;;;11.37;91.18
39793;BME280;26080;42.264;24.536;2023-05-03T00:58:51;99871.59;;;11.39;92.71
39793;BME280;26080;42.264;24.536;2023-05-03T01:01:17;99817.69;;;11.32;88.38
39793;BME280;26080;42.264;24.536;2023-05-03T01:03:43;99846.16;;;11.62;88.53
39793;BME280;26080;42.264;24.536;2023-05-03T01:09:23;99807.06;;;11.35;89.35
39793;BME280;26080;42.264;24.536;2023-05-03T01:15:27;99851.13;;;11.47;92.37
39793;BME280;26080;42.264;24.536;2023-05-03T01:18:10;99850.72;;;11.36;97.88
39793;BME280;26080;42.264;24.536;2023-05-03T01:20:37;99863.00;;;11.36;96.50
39793;BME280;26080;42.264;24.536;2023-05-03T01:23:13;99849.78;;;11.39;94.97
39793;BME280;26080;42.264;24.536;2023-05-03T01:25:39;99848.09;;;11.36;96.57
39793;BME280;26080;42.264;24.536;2023-05-03T01:28:04;99850.50;;;11.42;97.57
39793;BME280;26080;42.264;24.536;2023-05-03T01:30:30;99847.88;;;11.42;96.66
39793;BME280;26080;42.264;24.536;2023-05-03T01:33:10;99849.81;;;11.37;97.61
39793;BME280;26080;42.264;24.536;2023-05-03T01:35:49;99838.28;;;11.41;96.78
39793;BME280;26080;42.264;24.536;2023-05-03T01:38:17;99836.03;;;11.32;97.77
39793;BME280;26080;42.264;24.536;2023-05-03T01:40:49;99847.19;;;11.37;96.25
39793;BME280;26080;42.264;24.536;2023-05-03T01:43:16;99834.34;;;11.11;100.00
39793;BME280;26080;42.264;24.536;2023-05-03T01:45:42;99847.47;;;11.09;100.00
39793;BME280;26080;42.264;24.536;2023-05-03T01:48:14;99851.16;;;11.05;100.00
39793;BME280;26080;42.264;24.536;2023-05-03T01:50:39;99845.19;;;11.02;100.00
39793;BME280;26080;42.264;24.536;2023-05-03T01:53:05;99843.09;;;11.10;100.00
39793;BME280;26080;42.264;24.536;2023-05-03T01:55:30;99839.19;;;11.20;98.79
39793;BME280;26080;42.264;24.536;2023-05-03T01:57:56;99831.84;;;11.28;97.57
39793;BME280;26080;42.264;24.536;2023-05-03T02:00:21;99823.94;;;11.30;97.97
39793;BME280;26080;42.264;24.536;2023-05-03T02:02:47;99819.66;;;11.27;99.09
39793;BME280;26080;42.264;24.536;2023-05-03T02:05:12;99815.13;;;11.31;98.89
39793;BME280;26080;42.264;24.536;2023-05-03T02:07:38;99808.25;;;11.28;98.46
39793;BME280;26080;42.264;24.536;2023-05-03T02:10:05;99789.72;;;11.12;100.00
39793;BME280;26080;42.264;24.536;2023-05-03T02:12:30;99805.22;;;11.17;100.00
39793;BME280;26080;42.264;24.536;2023-05-03T02:14:56;99816.78;;;11.13;100.00
39793;BME280;26080;42.264;24.536;2023-05-03T02:17:21;99825.13;;;11.01;100.00
39793;BME280;26080;42.264;24.536;2023-05-03T02:19:51;99825.56;;;10.90;100.00
39793;BME280;26080;42.264;24.536;2023-05-03T02:22:16;99829.34;;;10.83;100.00
39793;BME280;26080;42.264;24.536;2023-05-03T02:24:42;99789.38;;;10.78;100.00
39793;BME280;26080;42.264;24.536;2023-05-03T02:27:07;99813.19;;;10.93;100.00
39793;BME280;26080;42.264;24.536;2023-05-03T02:29:33;99790.22;;;10.78;100.00
39793;BME280;26080;42.264;24.536;2023-05-03T02:31:58;99790.47;;;10.72;100.00
39793;BME280;26080;42.264;24.536;2023-05-03T02:34:25;99813.88;;;10.77;100.00
39793;BME280;26080;42.264;24.536;2023-05-03T02:36:51;99818.50;;;10.70;100.00
39793;BME280;26080;42.264;24.536;2023-05-03T02:39:16;99812.72;;;10.62;100.00
39793;BME280;26080;42.264;24.536;2023-05-03T02:41:42;99823.25;;;10.60;100.00
39793;BME280;26080;42.264;24.536;2023-05-03T02:44:07;99824.31;;;10.55;100.00
39793;BME280;26080;42.264;24.536;2023-05-03T02:46:32;99801.91;;;10.48;100.00
39793;BME280;26080;42.264;24.536;2023-05-03T02:48:58;99822.63;;;10.54;100.00
39793;BME280;26080;42.264;24.536;2023-05-03T02:51:24;99820.25;;;10.48;100.00
39793;BME280;26080;42.264;24.536;2023-05-03T02:53:49;99825.22;;;10.54;100.00
39793;BME280;26080;42.264;24.536;2023-05-03T02:56:15;99823.66;;;10.50;100.00
39793;BME280;26080;42.264;24.536;2023-05-03T02:58:40;99831.63;;;10.47;100.00
39793;BME280;26080;42.264;24.536;2023-05-03T03:01:06;99827.38;;;10.44;100.00
39793;BME280;26080;42.264;24.536;2023-05-03T03:03:31;99832.63;;;10.44;100.00
39793;BME280;26080;42.264;24.536;2023-05-03T03:05:56;99835.09;;;10.47;100.00
39793;BME280;26080;42.264;24.536;2023-05-03T03:08:22;99840.28;;;10.49;100.00
39793;BME280;26080;42.264;24.536;2023-05-03T03:10:47;99840.94;;;10.54;100.00
39793;BME280;26080;42.264;24.536;2023-05-03T03:13:13;99848.72;;;10.57;100.00
39793;BME280;26080;42.264;24.536;2023-05-03T03:15:39;99858.22;;;10.59;100.00
39793;BME280;26080;42.264;24.536;2023-05-03T03:18:04;99859.78;;;10.63;100.00
39793;BME280;26080;42.264;24.536;2023-05-03T03:20:30;99861.44;;;10.66;100.00
39793;BME280;26080;42.264;24.536;2023-05-03T03:22:55;99869.97;;;10.71;100.00
39793;BME280;26080;42.264;24.536;2023-05-03T03:25:21;99850.47;;;10.56;100.00
39793;BME280;26080;42.264;24.536;2023-05-03T03:27:49;99870.25;;;10.63;100.00
39793;BME280;26080;42.264;24.536;2023-05-03T03:30:24;99866.59;;;10.67;100.00
39793;BME280;26080;42.264;24.536;2023-05-03T03:32:49;99879.88;;;10.63;100.00
39793;BME280;26080;42.264;24.536;2023-05-03T03:35:18;99879.16;;;10.59;100.00
39793;BME280;26080;42.264;24.536;2023-05-03T03:37:44;99850.09;;;10.44;100.00
39793;BME280;26080;42.264;24.536;2023-05-03T03:40:09;99881.25;;;10.73;100.00
39793;BME280;26080;42.264;24.536;2023-05-03T03:42:35;99880.53;;;10.70;100.00
39793;BME280;26080;42.264;24.536;2023-05-03T03:45:01;99854.03;;;10.54;100.00
39793;BME280;26080;42.264;24.536;2023-05-03T03:47:26;99886.50;;;10.73;100.00
39793;BME280;26080;42.264;24.536;2023-05-03T03:49:52;99893.44;;;10.74;100.00
39793;BME280;26080;42.264;24.536;2023-05-03T03:52:17;99905.88;;;10.69;100.00
39793;BME280;26080;42.264;24.536;2023-05-03T03:54:43;99888.84;;;10.57;100.00
39793;BME280;26080;42.264;24.536;2023-05-03T03:57:08;99911.84;;;10.73;100.00
39793;BME280;26080;42.264;24.536;2023-05-03T03:59:34;99924.88;;;10.74;100.00
39793;BME280;26080;42.264;24.536;2023-05-03T04:01:59;99920.69;;;10.70;100.00
39793;BME280;26080;42.264;24.536;2023-05-03T04:04:25;99933.19;;;10.62;100.00
39793;BME280;26080;42.264;24.536;2023-05-03T04:06:50;99931.50;;;10.61;100.00
39793;BME280;26080;42.264;24.536;2023-05-03T04:09:16;99935.34;;;10.74;100.00
39793;BME280;26080;42.264;24.536;2023-05-03T04:11:41;99940.25;;;10.83;100.00
39793;BME280;26080;42.264;24.536;2023-05-03T04:14:07;99907.06;;;10.60;100.00
39793;BME280;26080;42.264;24.536;2023-05-03T04:16:32;99954.47;;;10.76;100.00
39793;BME280;26080;42.264;24.536;2023-05-03T04:18:58;99969.88;;;10.85;100.00
39793;BME280;26080;42.264;24.536;2023-05-03T04:21:23;99976.94;;;10.83;100.00
39793;BME280;26080;42.264;24.536;2023-05-03T04:23:49;99971.06;;;10.77;100.00
39793;BME280;26080;42.264;24.536;2023-05-03T04:26:14;99981.78;;;10.71;100.00
39793;BME280;26080;42.264;24.536;2023-05-03T04:28:41;99982.50;;;10.74;100.00
39793;BME280;26080;42.264;24.536;2023-05-03T04:31:07;99995.03;;;10.66;100.00
39793;BME280;26080;42.264;24.536;2023-05-03T04:33:32;99996.31;;;10.54;100.00
39793;BME280;26080;42.264;24.536;2023-05-03T04:35:58;100004.03;;;10.59;100.00
39793;BME280;26080;42.264;24.536;2023-05-03T04:38:23;100015.50;;;10.55;100.00
39793;BME280;26080;42.264;24.536;2023-05-03T04:40:48;100018.25;;;10.52;100.00
39793;BME280;26080;42.264;24.536;2023-05-03T04:43:14;100025.41;;;10.47;100.00
39793;BME280;26080;42.264;24.536;2023-05-03T04:45:40;100016.22;;;10.35;100.00
39793;BME280;26080;42.264;24.536;2023-05-03T04:48:06;100029.31;;;10.35;100.00
39793;BME280;26080;42.264;24.536;2023-05-03T04:50:32;100028.63;;;10.30;100.00
39793;BME280;26080;42.264;24.536;2023-05-03T04:52:58;100024.63;;;10.45;100.00
39793;BME280;26080;42.264;24.536;2023-05-03T04:55:23;100024.19;;;10.57;100.00
39793;BME280;26080;42.264;24.536;2023-05-03T04:57:49;100036.72;;;10.72;100.00
39793;BME280;26080;42.264;24.536;2023-05-03T05:00:14;100039.91;;;10.80;100.00
39793;BME280;26080;42.264;24.536;2023-05-03T05:02:40;100044.72;;;10.92;100.00
39793;BME280;26080;42.264;24.536;2023-05-03T05:05:06;100035.69;;;10.76;100.00
39793;BME280;26080;42.264;24.536;2023-05-03T05:07:33;100040.38;;;10.91;100.00
39793;BME280;26080;42.264;24.536;2023-05-03T05:09:59;100054.41;;;11.14;100.00
39793;BME280;26080;42.264;24.536;2023-05-03T05:12:25;100053.44;;;11.16;100.00
39793;BME280;26080;42.264;24.536;2023-05-03T05:14:50;100048.91;;;11.20;100.00
39793;BME280;26080;42.264;24.536;2023-05-03T05:17:16;100059.47;;;11.18;100.00
39793;BME280;26080;42.264;24.536;2023-05-03T05:19:44;100044.72;;;10.92;100.00
39793;BME280;26080;42.264;24.536;2023-05-03T05:22:09;100065.91;;;10.86;100.00
39793;BME280;26080;42.264;24.536;2023-05-03T05:24:53;100055.88;;;10.74;100.00
39793;BME280;26080;42.264;24.536;2023-05-03T05:27:19;100057.91;;;10.66;100.00
39793;BME280;26080;42.264;24.536;2023-05-03T05:29:44;100054.00;;;10.53;100.00
39793;BME280;26080;42.264;24.536;2023-05-03T05:32:10;100014.28;;;10.15;100.00
39793;BME280;26080;42.264;24.536;2023-05-03T05:34:36;100043.50;;;10.29;100.00
39793;BME280;26080;42.264;24.536;2023-05-03T05:37:02;100043.56;;;10.26;100.00
39793;BME280;26080;42.264;24.536;2023-05-03T05:39:29;100044.66;;;10.19;100.00
39793;BME280;26080;42.264;24.536;2023-05-03T05:41:55;100041.59;;;10.06;100.00
39793;BME280;26080;42.264;24.536;2023-05-03T05:44:20;100046.09;;;10.03;100.00
39793;BME280;26080;42.264;24.536;2023-05-03T05:46:46;100058.47;;;9.98;100.00
39793;BME280;26080;42.264;24.536;2023-05-03T05:49:11;100056.75;;;9.97;100.00
39793;BME280;26080;42.264;24.536;2023-05-03T05:51:37;100051.41;;;10.00;100.00
39793;BME280;26080;42.264;24.536;2023-05-03T05:54:03;100037.53;;;9.98;100.00
39793;BME280;26080;42.264;24.536;2023-05-03T05:56:28;100039.16;;;10.02;100.00
39793;BME280;26080;42.264;24.536;2023-05-03T05:58:54;100032.72;;;10.10;100.00
39793;BME280;26080;42.264;24.536;2023-05-03T06:01:20;100028.09;;;10.19;100.00
39793;BME280;26080;42.264;24.536;2023-05-03T06:03:45;100013.50;;;10.12;100.00
39793;BME280;26080;42.264;24.536;2023-05-03T06:06:11;100027.78;;;10.29;100.00
39793;BME280;26080;42.264;24.536;2023-05-03T06:08:36;100029.38;;;10.33;100.00
39793;BME280;26080;42.264;24.536;2023-05-03T06:11:01;100027.34;;;10.42;100.00
39793;BME280;26080;42.264;24.536;2023-05-03T06:13:27;100023.22;;;10.34;100.00
39793;BME280;26080;42.264;24.536;2023-05-03T06:15:52;100039.00;;;10.33;100.00
39793;BME280;26080;42.264;24.536;2023-05-03T06:18:18;100039.72;;;10.36;100.00
39793;BME280;26080;42.264;24.536;2023-05-03T06:20:47;100049.16;;;10.42;100.00
39793;BME280;26080;42.264;24.536;2023-05-03T06:23:13;100039.56;;;10.66;100.00
39793;BME280;26080;42.264;24.536;2023-05-03T06:25:38;100039.34;;;10.95;100.00
39793;BME280;26080;42.264;24.536;2023-05-03T06:28:03;100042.31;;;11.10;100.00
39793;BME280;26080;42.264;24.536;2023-05-03T06:30:29;100040.91;;;11.24;100.00
39793;BME280;26080;42.264;24.536;2023-05-03T06:32:55;100030.66;;;11.40;100.00
39793;BME280;26080;42.264;24.536;2023-05-03T06:35:20;100018.84;;;11.52;100.00
39793;BME280;26080;42.264;24.536;2023-05-03T06:37:46;100026.53;;;11.56;100.00
39793;BME280;26080;42.264;24.536;2023-05-03T06:40:11;100019.66;;;11.74;100.00
39793;BME280;26080;42.264;24.536;2023-05-03T06:42:37;100031.41;;;11.88;100.00
39793;BME280;26080;42.264;24.536;2023-05-03T06:45:05;100026.00;;;12.12;100.00
39793;BME280;26080;42.264;24.536;2023-05-03T06:47:32;100008.16;;;12.21;100.00
39793;BME280;26080;42.264;24.536;2023-05-03T06:49:57;100019.19;;;12.49;100.00
39793;BME280;26080;42.264;24.536;2023-05-03T06:52:23;100013.25;;;12.64;100.00
39793;BME280;26080;42.264;24.536;2023-05-03T06:54:48;100011.97;;;12.73;100.00
39793;BME280;26080;42.264;24.536;2023-05-03T06:57:15;100016.53;;;12.88;100.00
39793;BME280;26080;42.264;24.536;2023-05-03T06:59:40;100007.91;;;13.05;100.00
39793;BME280;26080;42.264;24.536;2023-05-03T07:02:06;100005.75;;;12.94;100.00
39793;BME280;26080;42.264;24.536;2023-05-03T07:04:31;100008.13;;;13.19;100.00
39793;BME280;26080;42.264;24.536;2023-05-03T07:06:57;99968.69;;;13.19;100.00
39793;BME280;26080;42.264;24.536;2023-05-03T07:09:23;99965.56;;;13.30;100.00
39793;BME280;26080;42.264;24.536;2023-05-03T07:11:48;99996.06;;;13.87;100.00
39793;BME280;26080;42.264;24.536;2023-05-03T07:14:15;100004.28;;;14.16;100.00
39793;BME280;26080;42.264;24.536;2023-05-03T07:16:41;100012.94;;;14.18;100.00
39793;BME280;26080;42.264;24.536;2023-05-03T07:19:07;100009.69;;;14.30;100.00
39793;BME280;26080;42.264;24.536;2023-05-03T07:21:32;100004.25;;;14.33;100.00
39793;BME280;26080;42.264;24.536;2023-05-03T07:23:59;99994.19;;;14.59;100.00
39793;BME280;26080;42.264;24.536;2023-05-03T07:26:25;99991.66;;;14.73;100.00
39793;BME280;26080;42.264;24.536;2023-05-03T07:28:51;99995.66;;;14.80;100.00
39793;BME280;26080;42.264;24.536;2023-05-03T07:31:17;99988.88;;;15.07;100.00
39793;BME280;26080;42.264;24.536;2023-05-03T07:33:43;99994.09;;;15.25;100.00
39793;BME280;26080;42.264;24.536;2023-05-03T07:36:08;99992.50;;;15.38;100.00
39793;BME280;26080;42.264;24.536;2023-05-03T07:38:34;99986.88;;;15.28;100.00
39793;BME280;26080;42.264;24.536;2023-05-03T07:40:59;100003.09;;;15.21;100.00
39793;BME280;26080;42.264;24.536;2023-05-03T07:43:24;100011.88;;;15.05;100.00
39793;BME280;26080;42.264;24.536;2023-05-03T07:45:50;100000.78;;;14.83;100.00
39793;BME280;26080;42.264;24.536;2023-05-03T07:48:15;99992.31;;;14.61;100.00
39793;BME280;26080;42.264;24.536;2023-05-03T07:50:42;99997.31;;;14.65;100.00
39793;BME280;26080;42.264;24.536;2023-05-03T07:53:08;99986.31;;;14.90;100.00
39793;BME280;26080;42.264;24.536;2023-05-03T07:55:33;99985.94;;;14.98;100.00
39793;BME280;26080;42.264;24.536;2023-05-03T07:58:01;99989.91;;;14.89;100.00
39793;BME280;26080;42.264;24.536;2023-05-03T08:00:26;99993.66;;;14.17;100.00
39793;BME280;26080;42.264;24.536;2023-05-03T08:02:52;99996.06;;;14.39;100.00
39793;BME280;26080;42.264;24.536;2023-05-03T08:05:18;99993.72;;;14.68;100.00
39793;BME280;26080;42.264;24.536;2023-05-03T08:07:43;99980.75;;;14.96;100.00
39793;BME280;26080;42.264;24.536;2023-05-03T08:10:09;99993.06;;;14.96;100.00
39793;BME280;26080;42.264;24.536;2023-05-03T08:12:35;99987.75;;;14.80;100.00
39793;BME280;26080;42.264;24.536;2023-05-03T08:15:00;99976.59;;;14.75;100.00
39793;BME280;26080;42.264;24.536;2023-05-03T08:17:26;99957.88;;;14.64;100.00
39793;BME280;26080;42.264;24.536;2023-05-03T08:19:51;99941.63;;;14.56;100.00
39793;BME280;26080;42.264;24.536;2023-05-03T08:22:19;99964.44;;;14.72;100.00
39793;BME280;26080;42.264;24.536;2023-05-03T08:24:44;99961.84;;;15.20;100.00
39793;BME280;26080;42.264;24.536;2023-05-03T08:27:10;99961.50;;;15.41;100.00
39793;BME280;26080;42.264;24.536;2023-05-03T08:29:36;99958.59;;;15.15;100.00
39793;BME280;26080;42.264;24.536;2023-05-03T08:32:03;99978.34;;;15.39;100.00
39793;BME280;26080;42.264;24.536;2023-05-03T08:34:29;99975.47;;;15.28;100.00
39793;BME280;26080;42.264;24.536;2023-05-03T08:36:54;99976.88;;;15.33;100.00
39793;BME280;26080;42.264;24.536;2023-05-03T08:39:20;99975.81;;;15.37;100.00
39793;BME280;26080;42.264;24.536;2023-05-03T08:41:46;99966.75;;;15.57;100.00
39793;BME280;26080;42.264;24.536;2023-05-03T08:44:19;99933.88;;;15.47;100.00
39793;BME280;26080;42.264;24.536;2023-05-03T08:46:46;99958.72;;;15.75;100.00
39793;BME280;26080;42.264;24.536;2023-05-03T08:49:12;99953.00;;;15.82;100.00
39793;BME280;26080;42.264;24.536;2023-05-03T08:51:39;99962.56;;;15.99;100.00
39793;BME280;26080;42.264;24.536;2023-05-03T08:54:12;99955.88;;;15.93;100.00
39793;BME280;26080;42.264;24.536;2023-05-03T08:56:42;99945.75;;;15.86;100.00
39793;BME280;26080;42.264;24.536;2023-05-03T08:59:09;99930.63;;;15.74;100.00
39793;BME280;26080;42.264;24.536;2023-05-03T09:01:36;99948.19;;;16.19;100.00
39793;BME280;26080;42.264;24.536;2023-05-03T09:04:02;99945.28;;;16.52;100.00
39793;BME280;26080;42.264;24.536;2023-05-03T09:06:28;99919.22;;;16.17;100.00
39793;BME280;26080;42.264;24.536;2023-05-03T09:08:57;99921.47;;;16.09;100.00
39793;BME280;26080;42.264;24.536;2023-05-03T09:11:26;99919.47;;;15.98;100.00
39793;BME280;26080;42.264;24.536;2023-05-03T09:13:52;99940.16;;;16.20;100.00
39793;BME280;26080;42.264;24.536;2023-05-03T09:16:22;99927.50;;;16.25;100.00
39793;BME280;26080;42.264;24.536;2023-05-03T09:21:23;99925.75;;;16.69;100.00
39793;BME280;26080;42.264;24.536;2023-05-03T09:23:48;99928.88;;;16.75;100.00
39793;BME280;26080;42.264;24.536;2023-05-03T09:26:32;99924.34;;;16.77;100.00
39793;BME280;26080;42.264;24.536;2023-05-03T09:29:02;99934.53;;;16.69;100.00
39793;BME280;26080;42.264;24.536;2023-05-03T09:31:29;99930.34;;;16.65;100.00
39793;BME280;26080;42.264;24.536;2023-05-03T09:33:56;99900.72;;;16.60;98.02
39793;BME280;26080;42.264;24.536;2023-05-03T09:36:22;99904.88;;;16.50;97.02
39793;BME280;26080;42.264;24.536;2023-05-03T09:38:48;99909.88;;;16.54;97.35
39793;BME280;26080;42.264;24.536;2023-05-03T09:41:14;99885.81;;;16.45;96.34
39793;BME280;26080;42.264;24.536;2023-05-03T09:43:50;99911.56;;;16.70;95.30
39793;BME280;26080;42.264;24.536;2023-05-03T09:46:16;99919.03;;;16.92;100.00
39793;BME280;26080;42.264;24.536;2023-05-03T09:48:42;99926.56;;;16.98;100.00
39793;BME280;26080;42.264;24.536;2023-05-03T09:51:08;99931.59;;;17.29;100.00
39793;BME280;26080;42.264;24.536;2023-05-03T09:53:35;99931.81;;;17.66;100.00
39793;BME280;26080;42.264;24.536;2023-05-03T09:56:02;99904.75;;;17.75;100.00
39793;BME280;26080;42.264;24.536;2023-05-03T09:58:28;99932.56;;;18.33;91.40
39793;BME280;26080;42.264;24.536;2023-05-03T10:00:55;99917.41;;;18.35;91.39
39793;BME280;26080;42.264;24.536;2023-05-03T10:03:31;99915.91;;;18.44;90.36
39793;BME280;26080;42.264;24.536;2023-05-03T10:06:00;99919.09;;;18.36;87.27
39793;BME280;26080;42.264;24.536;2023-05-03T10:08:40;99888.63;;;17.78;91.37
39793;BME280;26080;42.264;24.536;2023-05-03T10:11:11;99888.25;;;17.57;93.38
39793;BME280;26080;42.264;24.536;2023-05-03T10:13:39;99923.84;;;17.93;91.49
39793;BME280;26080;42.264;24.536;2023-05-03T10:16:06;99922.00;;;17.81;92.26
39793;BME280;26080;42.264;24.536;2023-05-03T10:18:38;99918.78;;;17.63;93.03
39793;BME280;26080;42.264;24.536;2023-05-03T10:21:17;99910.28;;;17.58;96.25
39793;BME280;26080;42.264;24.536;2023-05-03T10:24:11;99907.72;;;17.16;94.92
39793;BME280;26080;42.264;24.536;2023-05-03T10:26:39;99884.09;;;17.13;92.47
39793;BME280;26080;42.264;24.536;2023-05-03T10:29:05;99901.06;;;17.24;93.43
39793;BME280;26080;42.264;24.536;2023-05-03T10:34:24;99896.38;;;17.14;100.00
39793;BME280;26080;42.264;24.536;2023-05-03T10:36:50;99888.41;;;17.29;98.06
39793;BME280;26080;42.264;24.536;2023-05-03T10:39:20;99858.03;;;17.47;94.15
39793;BME280;26080;42.264;24.536;2023-05-03T10:42:04;99875.44;;;17.64;95.05
39793;BME280;26080;42.264;24.536;2023-05-03T10:47:15;99859.25;;;17.56;93.76
39793;BME280;26080;42.264;24.536;2023-05-03T10:49:40;99855.25;;;17.36;93.60
39793;BME280;26080;42.264;24.536;2023-05-03T10:55:00;99874.81;;;16.79;94.91
39793;BME280;26080;42.264;24.536;2023-05-03T10:57:28;99875.41;;;16.70;97.52
39793;BME280;26080;42.264;24.536;2023-05-03T10:59:56;99871.63;;;16.74;100.00
39793;BME280;26080;42.264;24.536;2023-05-03T11:02:26;99821.50;;;16.73;97.80
39793;BME280;26080;42.264;24.536;2023-05-03T11:04:58;99865.53;;;17.01;97.73
39793;BME280;26080;42.264;24.536;2023-05-03T11:07:26;99860.41;;;16.98;97.40
39793;BME280;26080;42.264;24.536;2023-05-03T11:09:52;99844.59;;;17.10;100.00
39793;BME280;26080;42.264;24.536;2023-05-03T11:12:17;99849.91;;;17.23;100.00
39793;BME280;26080;42.264;24.536;2023-05-03T11:14:43;99841.81;;;17.39;99.13
39793;BME280;26080;42.264;24.536;2023-05-03T11:17:09;99864.94;;;17.62;99.41
39793;BME280;26080;42.264;24.536;2023-05-03T11:19:35;99860.34;;;17.79;99.82
39793;BME280;26080;42.264;24.536;2023-05-03T11:22:00;99864.41;;;17.84;98.89
39793;BME280;26080;42.264;24.536;2023-05-03T11:24:26;99867.78;;;17.99;95.39
39793;BME280;26080;42.264;24.536;2023-05-03T11:26:52;99869.25;;;17.90;96.93
39793;BME280;26080;42.264;24.536;2023-05-03T11:29:17;99858.66;;;17.90;94.38
39793;BME280;26080;42.264;24.536;2023-05-03T11:31:43;99857.50;;;17.69;95.76
39793;BME280;26080;42.264;24.536;2023-05-03T11:34:12;99847.44;;;17.47;96.09
39793;BME280;26080;42.264;24.536;2023-05-03T11:36:40;99855.22;;;17.23;98.86
39793;BME280;26080;42.264;24.536;2023-05-03T11:39:06;99858.16;;;17.18;100.00
39793;BME280;26080;42.264;24.536;2023-05-03T11:41:32;99854.88;;;17.15;100.00
39793;BME280;26080;42.264;24.536;2023-05-03T11:43:58;99805.56;;;16.87;100.00
39793;BME280;26080;42.264;24.536;2023-05-03T11:46:25;99825.53;;;17.05;100.00
39793;BME280;26080;42.264;24.536;2023-05-03T11:48:51;99838.81;;;16.91;100.00
39793;BME280;26080;42.264;24.536;2023-05-03T11:51:21;99836.09;;;16.78;100.00
39793;BME280;26080;42.264;24.536;2023-05-03T11:53:47;99841.03;;;16.97;100.00
39793;BME280;26080;42.264;24.536;2023-05-03T11:56:14;99833.56;;;17.04;100.00
39793;BME280;26080;42.264;24.536;2023-05-03T11:58:55;99824.97;;;16.73;100.00
39793;BME280;26080;42.264;24.536;2023-05-03T12:01:26;99818.69;;;16.33;100.00
39793;BME280;26080;42.264;24.536;2023-05-03T12:03:59;99830.75;;;16.37;100.00
39793;BME280;26080;42.264;24.536;2023-05-03T12:06:28;99801.38;;;16.42;100.00
39793;BME280;26080;42.264;24.536;2023-05-03T12:08:55;99796.50;;;16.36;100.00
39793;BME280;26080;42.264;24.536;2023-05-03T12:11:21;99815.44;;;16.42;100.00
39793;BME280;26080;42.264;24.536;2023-05-03T12:13:56;99816.31;;;16.28;100.00
39793;BME280;26080;42.264;24.536;2023-05-03T12:16:22;99797.09;;;16.12;100.00
39793;BME280;26080;42.264;24.536;2023-05-03T12:18:53;99808.81;;;16.08;100.00
39793;BME280;26080;42.264;24.536;2023-05-03T12:21:20;99800.47;;;16.00;100.00
39793;BME280;26080;42.264;24.536;2023-05-03T12:23:46;99787.84;;;15.77;100.00
39793;BME280;26080;42.264;24.536;2023-05-03T12:26:14;99793.19;;;15.61;100.00
39793;BME280;26080;42.264;24.536;2023-05-03T12:28:40;99781.72;;;15.46;100.00
39793;BME280;26080;42.264;24.536;2023-05-03T12:31:05;99770.59;;;15.41;100.00
39793;BME280;26080;42.264;24.536;2023-05-03T12:33:30;99762.84;;;15.68;100.00
39793;BME280;26080;42.264;24.536;2023-05-03T12:35:57;99755.88;;;15.81;100.00
39793;BME280;26080;42.264;24.536;2023-05-03T12:38:22;99751.44;;;15.96;100.00
39793;BME280;26080;42.264;24.536;2023-05-03T12:40:48;99754.34;;;16.06;100.00
39793;BME280;26080;42.264;24.536;2023-05-03T12:43:14;99741.25;;;15.90;100.00
39793;BME280;26080;42.264;24.536;2023-05-03T12:45:40;99759.66;;;16.06;100.00
39793;BME280;26080;42.264;24.536;2023-05-03T12:48:06;99759.91;;;16.15;100.00
39793;BME280;26080;42.264;24.536;2023-05-03T12:50:32;99750.94;;;16.18;100.00
39793;BME280;26080;42.264;24.536;2023-05-03T12:52:57;99754.72;;;15.85;100.00
39793;BME280;26080;42.264;24.536;2023-05-03T12:55:23;99749.53;;;15.98;100.00